createdAt,value
2018-01-13T00:01:28.133Z,3.70
2018-01-13T00:03:55.716Z,3.70
2018-01-13T00:06:24.074Z,3.70
2018-01-13T00:08:51.679Z,3.70
2018-01-13T00:11:19.265Z,3.70
2018-01-13T00:13:46.858Z,3.70
2018-01-13T00:16:14.448Z,3.80
2018-01-13T00:18:42.815Z,3.70
2018-01-13T00:21:11.163Z,3.80
2018-01-13T00:23:38.792Z,3.70
2018-01-13T00:26:06.385Z,3.80
2018-01-13T00:28:33.987Z,3.80
2018-01-13T00:31:02.376Z,3.80
2018-01-13T00:33:29.966Z,3.70
2018-01-13T00:35:57.630Z,3.80
2018-01-13T00:38:25.212Z,3.80
2018-01-13T00:40:52.833Z,3.70
2018-01-13T00:43:20.797Z,3.70
2018-01-13T00:45:48.398Z,3.80
2018-01-13T00:48:15.980Z,3.70
2018-01-13T00:50:43.601Z,3.80
2018-01-13T00:53:11.291Z,3.80
2018-01-13T00:55:38.896Z,3.80
2018-01-13T00:58:06.587Z,3.70
2018-01-13T01:00:34.169Z,3.80
2018-01-13T01:03:01.798Z,3.80
2018-01-13T01:05:29.400Z,3.70
2018-01-13T01:07:57.006Z,3.70
2018-01-13T01:10:24.593Z,3.70
2018-01-13T01:12:55.974Z,3.70
2018-01-13T01:15:23.607Z,3.70
2018-01-13T01:17:51.187Z,3.70
2018-01-13T01:20:18.814Z,3.80
2018-01-13T01:22:46.402Z,3.80
2018-01-13T01:25:13.988Z,3.70
2018-01-13T01:27:41.597Z,3.70
2018-01-13T01:30:09.233Z,3.70
2018-01-13T01:32:37.580Z,3.70
2018-01-13T01:35:05.156Z,3.70
2018-01-13T01:37:32.758Z,3.70
2018-01-13T01:40:00.352Z,3.70
2018-01-13T01:42:27.978Z,3.70
2018-01-13T01:44:55.663Z,3.70
2018-01-13T01:47:23.248Z,3.70
2018-01-13T01:49:50.826Z,3.70
2018-01-13T01:52:18.440Z,3.70
2018-01-13T01:54:46.024Z,3.70
2018-01-13T01:57:13.611Z,3.70
2018-01-13T01:59:41.961Z,3.70
2018-01-13T02:02:09.569Z,3.70
2018-01-13T02:04:37.148Z,3.70
2018-01-13T02:07:04.791Z,3.70
2018-01-13T02:09:33.159Z,3.80
2018-01-13T02:12:01.519Z,3.80
2018-01-13T02:14:29.144Z,3.80
2018-01-13T02:16:56.977Z,3.80
2018-01-13T02:19:25.342Z,3.80
2018-01-13T02:21:53.702Z,3.80
2018-01-13T02:24:21.298Z,3.80
2018-01-13T02:26:48.892Z,3.80
2018-01-13T02:29:16.486Z,3.80
2018-01-13T02:31:44.092Z,3.80
2018-01-13T02:34:11.686Z,3.70
2018-01-13T02:36:39.298Z,3.70
2018-01-13T02:39:07.648Z,3.70
2018-01-13T02:41:35.246Z,3.70
2018-01-13T02:44:02.836Z,3.70
2018-01-13T02:46:30.431Z,3.70
2018-01-13T02:48:58.020Z,3.60
2018-01-13T02:51:26.364Z,3.60
2018-01-13T02:53:54.013Z,3.60
2018-01-13T02:56:21.611Z,3.60
2018-01-13T02:58:49.974Z,3.60
2018-01-13T03:01:17.570Z,3.60
2018-01-13T03:03:45.938Z,3.70
2018-01-13T03:06:14.289Z,3.70
2018-01-13T03:08:41.884Z,3.70
2018-01-13T03:11:10.238Z,3.70
2018-01-13T03:13:37.838Z,3.60
2018-01-13T03:16:05.443Z,3.60
2018-01-13T03:18:33.045Z,3.60
2018-01-13T03:21:01.404Z,3.60
2018-01-13T03:23:29.988Z,3.60
2018-01-13T03:25:57.581Z,3.60
2018-01-13T03:28:25.182Z,3.70
2018-01-13T03:30:52.781Z,3.60
2018-01-13T03:33:21.138Z,3.70
2018-01-13T03:35:48.739Z,3.60
2018-01-13T03:38:16.351Z,3.70
2018-01-13T03:40:43.959Z,3.70
2018-01-13T03:43:11.551Z,3.60
2018-01-13T03:45:39.153Z,3.60
2018-01-13T03:48:06.746Z,3.60
2018-01-13T03:50:34.357Z,3.60
2018-01-13T03:53:01.935Z,3.60
2018-01-13T03:55:29.551Z,3.60
2018-01-13T03:57:57.139Z,3.60
2018-01-13T04:00:24.740Z,3.60
2018-01-13T04:02:53.092Z,3.70
2018-01-13T04:05:20.694Z,3.60
2018-01-13T04:07:48.307Z,3.70
2018-01-13T04:10:15.939Z,3.70
2018-01-13T04:12:43.540Z,3.60
2018-01-13T04:15:11.120Z,3.60
2018-01-13T04:17:39.480Z,3.60
2018-01-13T04:20:07.074Z,3.60
2018-01-13T04:22:34.672Z,3.60
2018-01-13T04:25:02.285Z,3.60
2018-01-13T04:27:30.660Z,3.60
2018-01-13T04:29:59.009Z,3.60
2018-01-13T04:32:26.670Z,3.50
2018-01-13T04:34:54.247Z,3.60
2018-01-13T04:37:21.836Z,3.60
2018-01-13T04:39:49.436Z,3.60
2018-01-13T04:42:17.064Z,3.60
2018-01-13T04:44:44.685Z,3.60
2018-01-13T04:47:12.311Z,3.60
2018-01-13T04:49:40.825Z,3.60
2018-01-13T04:52:08.429Z,3.60
2018-01-13T04:54:36.049Z,3.50
2018-01-13T04:57:03.659Z,3.60
2018-01-13T04:59:31.258Z,3.50
2018-01-13T05:01:58.931Z,3.60
2018-01-13T05:04:26.538Z,3.50
2018-01-13T05:06:54.134Z,3.60
2018-01-13T05:09:21.730Z,3.60
2018-01-13T05:11:49.320Z,3.60
2018-01-13T05:14:16.921Z,3.60
2018-01-13T05:16:44.514Z,3.60
2018-01-13T05:19:12.176Z,3.60
2018-01-13T05:21:39.797Z,3.60
2018-01-13T05:24:07.393Z,3.50
2018-01-13T05:26:35.000Z,3.50
2018-01-13T05:29:02.606Z,3.50
2018-01-13T05:31:37.109Z,3.50
2018-01-13T05:34:05.050Z,3.50
2018-01-13T05:36:32.627Z,3.50
2018-01-13T05:39:00.242Z,3.50
2018-01-13T05:41:28.601Z,3.50
2018-01-13T05:43:56.261Z,3.50
2018-01-13T05:46:23.831Z,3.60
2018-01-13T05:48:51.418Z,3.50
2018-01-13T05:51:19.765Z,3.60
2018-01-13T05:53:47.371Z,3.50
2018-01-13T05:56:14.965Z,3.50
2018-01-13T05:58:42.599Z,3.60
2018-01-13T06:01:10.207Z,3.60
2018-01-13T06:03:37.788Z,3.50
2018-01-13T06:06:06.144Z,3.50
2018-01-13T06:08:33.723Z,3.50
2018-01-13T06:11:01.363Z,3.50
2018-01-13T06:13:31.991Z,3.60
2018-01-13T06:15:59.582Z,3.60
2018-01-13T06:18:27.956Z,3.60
2018-01-13T06:20:55.539Z,3.50
2018-01-13T06:23:23.119Z,3.50
2018-01-13T06:26:01.224Z,3.50
2018-01-13T06:28:28.816Z,3.60
2018-01-13T06:30:56.412Z,3.60
2018-01-13T06:33:24.768Z,3.50
2018-01-13T06:35:52.365Z,3.50
2018-01-13T06:38:20.716Z,3.50
2018-01-13T06:40:48.303Z,3.50
2018-01-13T06:43:30.333Z,3.50
2018-01-13T06:45:58.289Z,3.50
2018-01-13T06:48:26.909Z,3.50
2018-01-13T06:50:59.909Z,3.50
2018-01-13T06:53:27.492Z,3.50
2018-01-13T06:55:59.468Z,3.40
2018-01-13T06:58:34.020Z,3.40
2018-01-13T07:01:12.594Z,3.40
2018-01-13T07:03:40.186Z,3.40
2018-01-13T07:06:07.812Z,3.40
2018-01-13T07:08:35.427Z,3.40
2018-01-13T07:11:03.011Z,3.40
2018-01-13T07:13:31.613Z,3.40
2018-01-13T07:15:59.202Z,3.40
2018-01-13T07:18:27.618Z,3.40
2018-01-13T07:20:55.194Z,3.40
2018-01-13T07:23:22.818Z,3.40
2018-01-13T07:25:54.170Z,3.40
2018-01-13T07:28:21.788Z,3.40
2018-01-13T07:30:49.390Z,3.40
2018-01-13T07:33:23.938Z,3.40
2018-01-13T07:35:52.295Z,3.50
2018-01-13T07:38:19.892Z,3.40
2018-01-13T07:40:47.486Z,3.50
2018-01-13T07:43:27.708Z,3.50
2018-01-13T07:45:55.285Z,3.50
2018-01-13T07:48:22.895Z,3.50
2018-01-13T07:50:50.510Z,3.50
2018-01-13T07:53:18.120Z,3.50
2018-01-13T07:55:45.702Z,3.50
2018-01-13T07:58:13.307Z,3.50
2018-01-13T08:00:40.893Z,3.50
2018-01-13T08:03:08.521Z,3.50
2018-01-13T08:05:36.147Z,3.50
2018-01-13T08:08:03.752Z,3.50
2018-01-13T08:10:31.362Z,3.50
2018-01-13T08:12:59.012Z,3.50
2018-01-13T08:15:26.883Z,3.50
2018-01-13T08:17:54.501Z,3.60
2018-01-13T08:20:22.104Z,3.60
2018-01-13T08:22:49.760Z,3.60
2018-01-13T08:25:17.362Z,3.60
2018-01-13T08:27:45.744Z,3.60
2018-01-13T08:30:13.343Z,3.60
2018-01-13T08:32:41.705Z,3.70
2018-01-13T08:35:09.320Z,3.60
2018-01-13T08:37:37.140Z,3.70
2018-01-13T08:40:04.759Z,3.70
2018-01-13T08:42:32.348Z,3.60
2018-01-13T08:45:00.088Z,3.60
2018-01-13T08:47:27.669Z,3.60
2018-01-13T08:49:55.267Z,3.50
2018-01-13T08:52:23.607Z,3.50
2018-01-13T08:54:51.210Z,3.50
2018-01-13T08:57:19.703Z,3.50
2018-01-13T08:59:48.246Z,3.50
2018-01-13T09:02:20.167Z,3.40
2018-01-13T09:04:47.872Z,3.40
2018-01-13T09:07:16.309Z,3.50
2018-01-13T09:09:43.914Z,3.40
2018-01-13T09:12:11.510Z,3.50
2018-01-13T09:14:39.134Z,3.60
2018-01-13T09:17:06.716Z,3.60
2018-01-13T09:19:35.075Z,3.60
2018-01-13T09:22:02.666Z,3.50
2018-01-13T09:24:31.035Z,3.50
2018-01-13T09:26:59.408Z,3.60
2018-01-13T09:29:27.774Z,3.60
2018-01-13T09:31:55.382Z,3.50
2018-01-13T09:34:22.976Z,3.60
2018-01-13T09:36:50.655Z,3.60
2018-01-13T09:39:18.244Z,3.60
2018-01-13T09:41:46.605Z,3.60
2018-01-13T09:44:14.214Z,3.60
2018-01-13T09:46:41.828Z,3.60
2018-01-13T09:49:09.613Z,3.60
2018-01-13T09:51:37.256Z,3.70
2018-01-13T09:54:04.901Z,3.70
2018-01-13T09:56:33.475Z,3.70
2018-01-13T09:59:01.102Z,3.80
2018-01-13T10:01:28.696Z,3.80
2018-01-13T10:03:56.299Z,3.90
2018-01-13T10:06:24.662Z,3.90
2018-01-13T10:08:52.244Z,3.90
2018-01-13T10:11:20.623Z,4.00
2018-01-13T10:13:48.967Z,4.00
2018-01-13T10:16:16.586Z,4.00
2018-01-13T10:18:44.162Z,4.00
2018-01-13T10:21:11.761Z,4.00
2018-01-13T11:46:08.965Z,4.20
2018-01-13T11:48:36.616Z,4.30
2018-01-13T11:51:04.215Z,4.30
2018-01-13T11:53:31.819Z,4.30
2018-01-13T11:55:59.424Z,4.20
2018-01-13T11:58:27.791Z,4.30
2018-01-13T12:00:56.176Z,4.30
2018-01-13T12:03:24.524Z,4.30
2018-01-13T12:05:52.204Z,4.30
2018-01-13T12:08:19.801Z,4.30
2018-01-13T12:10:47.423Z,4.30
2018-01-13T12:13:15.014Z,4.30
2018-01-13T12:15:42.747Z,4.40
2018-01-13T12:18:11.121Z,4.40
2018-01-13T12:20:38.745Z,4.40
2018-01-13T12:23:06.353Z,4.40
2018-01-13T12:25:33.928Z,4.50
2018-01-13T12:28:02.282Z,4.50
2018-01-13T12:30:29.878Z,4.50
2018-01-13T12:32:57.488Z,4.60
2018-01-13T12:35:25.080Z,4.50
2018-01-13T12:37:53.469Z,4.60
2018-01-13T12:40:21.069Z,4.50
2018-01-13T12:42:48.691Z,4.60
2018-01-13T12:45:17.045Z,4.50
2018-01-13T12:47:44.639Z,4.50
2018-01-13T12:50:12.246Z,4.50
2018-01-13T12:52:40.641Z,4.50
2018-01-13T12:55:08.230Z,4.50
2018-01-13T12:57:36.590Z,4.50
2018-01-13T13:00:04.186Z,4.50
2018-01-13T13:02:31.770Z,4.50
2018-01-13T13:05:02.842Z,4.50
2018-01-13T13:07:30.432Z,4.50
2018-01-13T13:09:59.706Z,4.50
2018-01-13T13:12:27.319Z,4.50
2018-01-13T13:14:54.909Z,4.50
2018-01-13T13:17:22.518Z,4.50
2018-01-13T13:19:50.183Z,4.50
2018-01-13T13:22:18.543Z,4.50
2018-01-13T13:24:46.143Z,4.50
2018-01-13T13:27:13.733Z,4.60
2018-01-13T13:29:42.383Z,4.60
2018-01-13T13:32:09.956Z,4.60
2018-01-13T13:34:37.545Z,4.60
2018-01-13T13:37:05.119Z,4.60
2018-01-13T13:39:32.721Z,4.60
2018-01-13T13:42:01.068Z,4.70
2018-01-13T13:44:28.652Z,4.60
2018-01-13T13:46:57.058Z,4.60
2018-01-13T13:49:24.640Z,4.60
2018-01-13T13:51:52.458Z,4.50
2018-01-13T13:54:20.857Z,4.50
2018-01-13T13:56:55.113Z,4.50
2018-01-13T13:59:22.695Z,4.50
2018-01-13T14:01:50.304Z,4.50
2018-01-13T14:04:18.901Z,4.50
2018-01-13T14:06:46.485Z,4.50
2018-01-13T14:09:14.071Z,4.50
2018-01-13T14:11:42.430Z,4.50
2018-01-13T14:14:10.030Z,4.50
2018-01-13T14:16:37.659Z,4.50
2018-01-13T14:19:05.304Z,4.60
2018-01-13T14:21:32.925Z,4.60
2018-01-13T14:24:00.508Z,4.60
2018-01-13T14:26:28.092Z,4.50
2018-01-13T14:28:55.681Z,4.50
2018-01-13T14:31:24.046Z,4.60
2018-01-13T14:33:51.626Z,4.60
2018-01-13T14:36:19.982Z,4.50
2018-01-13T14:38:47.615Z,4.50
2018-01-13T14:41:15.204Z,4.50
2018-01-13T14:43:42.788Z,4.60
2018-01-13T14:46:11.146Z,4.60
2018-01-13T14:48:38.766Z,4.50
2018-01-13T14:51:06.365Z,4.60
2018-01-13T14:53:33.941Z,4.60
2018-01-13T14:56:01.551Z,4.60
2018-01-13T14:58:29.157Z,4.50
2018-01-13T15:00:56.746Z,4.50
2018-01-13T15:03:25.108Z,4.50
2018-01-13T15:05:53.470Z,4.50
2018-01-13T15:08:21.052Z,4.50
2018-01-13T15:10:49.408Z,4.40
2018-01-13T15:13:17.039Z,4.40
2018-01-13T15:15:44.623Z,4.40
2018-01-13T15:18:12.240Z,4.40
2018-01-13T15:20:39.833Z,4.40
2018-01-13T15:23:07.449Z,4.40
2018-01-13T15:25:46.138Z,4.40
2018-01-13T15:28:13.724Z,4.40
2018-01-13T15:30:42.119Z,4.40
2018-01-13T15:33:09.713Z,4.40
2018-01-13T15:35:37.299Z,4.40
2018-01-13T15:38:04.877Z,4.40
2018-01-13T15:40:33.237Z,4.40
2018-01-13T15:43:00.820Z,4.30
2018-01-13T15:45:30.112Z,4.30
2018-01-13T15:47:57.738Z,4.40
2018-01-13T15:50:25.347Z,4.40
2018-01-13T15:52:53.716Z,4.40
2018-01-13T15:55:21.310Z,4.40
2018-01-13T15:57:48.924Z,4.40
2018-01-13T16:00:16.526Z,4.40
2018-01-13T16:02:44.131Z,4.30
2018-01-13T16:05:11.754Z,4.40
2018-01-13T16:07:39.345Z,4.30
2018-01-13T16:10:06.958Z,4.40
2018-01-13T16:12:35.300Z,4.40
2018-01-13T16:15:02.909Z,4.30
2018-01-13T16:17:30.501Z,4.40
2018-01-13T16:19:58.098Z,4.30
2018-01-13T16:22:25.723Z,4.30
2018-01-13T16:24:55.260Z,4.30
2018-01-13T16:27:22.873Z,4.30
2018-01-13T16:29:53.030Z,4.30
2018-01-13T16:32:20.614Z,4.30
2018-01-13T16:34:49.010Z,4.30
2018-01-13T16:37:18.754Z,4.30
2018-01-13T16:39:46.351Z,4.30
2018-01-13T16:42:14.954Z,4.30
2018-01-13T16:44:42.579Z,4.30
2018-01-13T16:47:10.210Z,4.30
2018-01-13T16:49:38.590Z,4.20
2018-01-13T16:52:14.070Z,4.20
2018-01-13T16:54:42.429Z,4.20
2018-01-13T16:57:10.026Z,4.20
2018-01-13T16:59:37.628Z,4.20
2018-01-13T17:02:05.208Z,4.30
2018-01-13T17:04:32.820Z,4.30
2018-01-13T17:07:00.400Z,4.20
2018-01-13T17:09:28.744Z,4.20
2018-01-13T17:11:56.329Z,4.20
2018-01-13T17:14:23.904Z,4.30
2018-01-13T17:16:58.069Z,4.20
2018-01-13T17:19:25.649Z,4.20
2018-01-13T17:21:53.228Z,4.20
2018-01-13T17:24:21.598Z,4.20
2018-01-13T17:26:49.306Z,4.20
2018-01-13T17:29:16.934Z,4.30
2018-01-13T17:31:45.297Z,4.30
2018-01-13T17:34:12.876Z,4.20
2018-01-13T17:36:42.324Z,4.20
2018-01-13T17:39:10.927Z,4.20
2018-01-13T17:41:38.557Z,4.20
2018-01-13T17:44:06.132Z,4.20
2018-01-13T17:46:33.773Z,4.20
2018-01-13T17:49:01.360Z,4.30
2018-01-13T17:51:28.944Z,4.30
2018-01-13T17:53:56.557Z,4.20
2018-01-13T17:56:24.160Z,4.30
2018-01-13T17:58:51.774Z,4.20
2018-01-13T18:01:19.400Z,4.30
2018-01-13T18:03:52.785Z,4.20
2018-01-13T18:06:20.476Z,4.20
2018-01-13T18:08:49.776Z,4.30
2018-01-13T18:11:19.618Z,4.30
2018-01-13T18:13:47.230Z,4.20
2018-01-13T18:16:14.839Z,4.20
2018-01-13T18:18:42.442Z,4.30
2018-01-13T18:21:10.844Z,4.20
2018-01-13T18:23:38.470Z,4.20
2018-01-13T18:26:06.073Z,4.20
2018-01-13T18:28:33.674Z,4.20
2018-01-13T18:31:04.639Z,4.20
2018-01-13T18:33:32.231Z,4.20
2018-01-13T18:35:59.846Z,4.20
2018-01-13T18:38:27.470Z,4.20
2018-01-13T18:40:57.825Z,4.20
2018-01-13T18:43:25.417Z,4.20
2018-01-13T18:45:53.019Z,4.20
2018-01-13T18:48:21.389Z,4.20
2018-01-13T18:50:49.748Z,4.20
2018-01-13T18:53:17.354Z,4.20
2018-01-13T18:55:44.970Z,4.20
2018-01-13T18:58:12.576Z,4.20
2018-01-13T19:00:40.234Z,4.20
2018-01-13T19:03:07.830Z,4.20
2018-01-13T19:05:35.430Z,4.20
2018-01-13T19:08:06.547Z,4.20
2018-01-13T19:10:34.149Z,4.20
2018-01-13T19:13:02.510Z,4.20
2018-01-13T19:15:30.137Z,4.20
2018-01-13T19:17:57.742Z,4.20
2018-01-13T19:20:26.098Z,4.20
2018-01-13T19:22:53.696Z,4.10
2018-01-13T19:25:21.279Z,4.10
2018-01-13T19:27:48.916Z,4.10
2018-01-13T19:30:17.282Z,4.20
2018-01-13T19:32:45.659Z,4.20
2018-01-13T19:35:13.245Z,4.20
2018-01-13T19:37:40.843Z,4.20
2018-01-13T19:40:08.451Z,4.20
2018-01-13T19:42:36.846Z,4.20
2018-01-13T19:45:04.458Z,4.10
2018-01-13T19:47:32.062Z,4.20
2018-01-13T19:50:00.470Z,4.20
2018-01-13T19:52:28.060Z,4.20
2018-01-13T19:54:55.677Z,4.20
2018-01-13T19:57:23.256Z,4.10
2018-01-13T19:59:50.862Z,4.10
2018-01-13T20:02:18.485Z,4.10
2018-01-13T20:04:46.094Z,4.00
2018-01-13T20:07:35.821Z,4.00
2018-01-13T20:10:03.447Z,4.00
2018-01-13T20:12:31.815Z,4.00
2018-01-13T20:15:00.190Z,4.00
2018-01-13T20:17:27.803Z,4.00
2018-01-13T20:19:55.435Z,4.00
2018-01-13T20:22:23.800Z,4.00
2018-01-13T20:24:52.181Z,4.00
2018-01-13T20:27:20.547Z,4.00
2018-01-13T20:29:48.154Z,3.90
2018-01-13T20:32:15.764Z,4.00
2018-01-13T20:34:43.364Z,3.90
2018-01-13T20:37:14.997Z,3.90
2018-01-13T20:39:43.381Z,3.80
2018-01-13T20:42:10.991Z,3.80
2018-01-13T20:44:38.650Z,3.70
2018-01-13T20:47:06.248Z,3.70
2018-01-13T20:49:33.889Z,3.70
2018-01-13T20:52:01.505Z,3.70
2018-01-13T20:54:29.100Z,3.70
2018-01-13T20:56:56.737Z,3.60
2018-01-13T20:59:24.342Z,3.60
2018-01-13T21:01:52.747Z,3.50
2018-01-13T21:04:21.124Z,3.60
2018-01-13T21:06:49.482Z,3.50
2018-01-13T21:09:17.101Z,3.50
2018-01-13T21:11:44.708Z,3.60
2018-01-13T21:14:12.325Z,3.60
2018-01-13T21:16:39.933Z,3.60
2018-01-13T21:19:07.539Z,3.60
2018-01-13T21:21:35.174Z,3.60
2018-01-13T21:24:03.554Z,3.60
2018-01-13T21:26:45.040Z,3.60
2018-01-13T21:29:13.407Z,3.60
2018-01-13T21:31:41.033Z,3.60
2018-01-13T21:34:08.637Z,3.50
2018-01-13T21:36:36.281Z,3.50
2018-01-13T21:39:04.705Z,3.50
2018-01-13T21:41:32.297Z,3.50
2018-01-13T21:46:54.217Z,3.50
2018-01-13T21:49:21.832Z,3.50
2018-01-13T21:51:50.500Z,3.50
2018-01-13T21:54:20.040Z,3.50
2018-01-13T21:56:47.635Z,3.50
2018-01-13T21:59:15.325Z,3.50
2018-01-13T22:01:42.929Z,3.50
2018-01-13T22:04:11.373Z,3.50
2018-01-13T22:06:39.021Z,3.50
2018-01-13T22:09:06.619Z,3.50
2018-01-13T22:11:34.250Z,3.50
2018-01-13T22:14:05.601Z,3.50
2018-01-13T22:16:33.199Z,3.50
2018-01-13T22:19:00.792Z,3.50
2018-01-13T22:21:28.393Z,3.50
2018-01-13T22:23:56.015Z,3.50
2018-01-13T22:26:23.598Z,3.40
2018-01-13T22:28:51.204Z,3.40
2018-01-13T22:31:18.823Z,3.40
2018-01-13T22:33:46.432Z,3.40
2018-01-13T22:36:14.038Z,3.40
2018-01-13T22:38:41.638Z,3.40
2018-01-13T22:41:09.281Z,3.40
2018-01-13T22:43:40.744Z,3.30
2018-01-13T22:46:28.106Z,3.30
2018-01-13T22:49:11.276Z,3.30
2018-01-13T22:51:38.879Z,3.30
2018-01-13T22:54:07.451Z,3.30
2018-01-13T22:56:35.070Z,3.30
2018-01-13T22:59:02.689Z,3.30
2018-01-13T23:01:30.276Z,3.30
2018-01-13T23:03:58.640Z,3.20
2018-01-13T23:06:27.032Z,3.20
2018-01-13T23:08:55.391Z,3.10
2018-01-13T23:11:22.991Z,3.10
2018-01-13T23:13:50.603Z,3.10
2018-01-13T23:16:18.222Z,3.10
2018-01-13T23:18:45.829Z,3.20
2018-01-13T23:21:13.429Z,3.20
2018-01-13T23:23:41.028Z,3.10
2018-01-13T23:26:08.618Z,3.10
2018-01-13T23:28:36.203Z,3.10
2018-01-13T23:31:03.790Z,3.10
2018-01-13T23:33:31.421Z,3.00
2018-01-13T23:35:59.026Z,3.00
2018-01-13T23:38:26.621Z,3.00
2018-01-13T23:40:57.761Z,3.00
2018-01-13T23:43:25.331Z,3.00
2018-01-13T23:45:52.930Z,2.90
2018-01-13T23:48:20.522Z,2.90
2018-01-13T23:50:48.165Z,2.90
2018-01-13T23:53:15.766Z,2.90
2018-01-13T23:55:44.306Z,2.90
2018-01-13T23:58:11.899Z,2.80
